sensor_id;sensor_type;location;lat;lon;timestamp;pressure;altitude;pressure_sealevel;temperature;humidity
75794;BME280;64418;47.536;19.074;2023-07-20T00:01:16;99602.91;;;23.91;61.60
75794;BME280;64418;47.536;19.074;2023-07-20T00:03:43;99596.78;;;23.81;61.81
75794;BME280;64418;47.536;19.074;2023-07-20T00:06:09;99592.56;;;23.83;62.12
75794;BME280;64418;47.536;19.074;2023-07-20T00:08:35;99587.81;;;23.75;62.20
75794;BME280;64418;47.536;19.074;2023-07-20T00:11:02;99594.84;;;23.81;62.50
75794;BME280;64418;47.536;19.074;2023-07-20T00:13:50;99605.19;;;23.76;62.55
75794;BME280;64418;47.536;19.074;2023-07-20T00:16:15;99610.44;;;23.77;62.63
75794;BME280;64418;47.536;19.074;2023-07-20T00:18:42;99606.91;;;23.63;62.76
75794;BME280;64418;47.536;19.074;2023-07-20T00:21:08;99600.84;;;23.61;62.78
75794;BME280;64418;47.536;19.074;2023-07-20T00:23:33;99599.22;;;23.60;62.77
75794;BME280;64418;47.536;19.074;2023-07-20T00:26:00;99582.63;;;23.60;63.21
75794;BME280;64418;47.536;19.074;2023-07-20T00:28:26;99579.78;;;23.52;62.94
75794;BME280;64418;47.536;19.074;2023-07-20T00:30:53;99587.97;;;23.57;63.16
75794;BME280;64418;47.536;19.074;2023-07-20T00:33:19;99585.50;;;23.55;63.27
75794;BME280;64418;47.536;19.074;2023-07-20T00:35:45;99594.94;;;23.54;63.54
75794;BME280;64418;47.536;19.074;2023-07-20T00:38:11;99586.97;;;23.53;63.44
75794;BME280;64418;47.536;19.074;2023-07-20T00:40:56;99586.44;;;23.50;63.32
75794;BME280;64418;47.536;19.074;2023-07-20T00:43:22;99588.19;;;23.46;63.25
75794;BME280;64418;47.536;19.074;2023-07-20T00:45:49;99593.72;;;23.46;63.71
75794;BME280;64418;47.536;19.074;2023-07-20T00:48:37;99592.47;;;23.39;63.72
75794;BME280;64418;47.536;19.074;2023-07-20T00:51:03;99593.59;;;23.38;63.87
75794;BME280;64418;47.536;19.074;2023-07-20T00:53:30;99586.53;;;23.32;63.91
75794;BME280;64418;47.536;19.074;2023-07-20T00:55:56;99575.09;;;23.25;64.28
75794;BME280;64418;47.536;19.074;2023-07-20T00:58:22;99582.84;;;23.23;64.42
75794;BME280;64418;47.536;19.074;2023-07-20T01:00:49;99572.44;;;23.20;64.35
75794;BME280;64418;47.536;19.074;2023-07-20T01:03:14;99563.66;;;23.18;64.45
75794;BME280;64418;47.536;19.074;2023-07-20T01:05:48;99565.28;;;23.19;64.36
75794;BME280;64418;47.536;19.074;2023-07-20T01:08:22;99565.28;;;23.19;64.54
75794;BME280;64418;47.536;19.074;2023-07-20T01:10:54;99560.75;;;23.23;64.19
75794;BME280;64418;47.536;19.074;2023-07-20T01:13:23;99551.72;;;23.31;64.25
75794;BME280;64418;47.536;19.074;2023-07-20T01:15:56;99552.06;;;23.29;64.17
75794;BME280;64418;47.536;19.074;2023-07-20T01:18:22;99520.87;;;23.01;64.57
75794;BME280;64418;47.536;19.074;2023-07-20T01:21:17;99548.69;;;23.19;64.67
75794;BME280;64418;47.536;19.074;2023-07-20T01:24:19;99521.91;;;23.06;64.64
75794;BME280;64418;47.536;19.074;2023-07-20T01:27:06;99545.59;;;23.20;64.89
75794;BME280;64418;47.536;19.074;2023-07-20T01:32:31;99559.53;;;23.29;64.64
75794;BME280;64418;47.536;19.074;2023-07-20T01:34:59;99565.47;;;23.09;65.36
75794;BME280;64418;47.536;19.074;2023-07-20T01:37:27;99554.75;;;23.07;65.36
75794;BME280;64418;47.536;19.074;2023-07-20T01:39:56;99553.81;;;23.12;65.12
75794;BME280;64418;47.536;19.074;2023-07-20T01:42:22;99567.84;;;23.01;65.78
75794;BME280;64418;47.536;19.074;2023-07-20T01:44:50;99570.00;;;23.04;65.76
75794;BME280;64418;47.536;19.074;2023-07-20T01:47:17;99574.50;;;23.00;65.71
75794;BME280;64418;47.536;19.074;2023-07-20T01:49:45;99570.81;;;23.05;65.37
75794;BME280;64418;47.536;19.074;2023-07-20T01:52:11;99575.13;;;23.11;65.28
75794;BME280;64418;47.536;19.074;2023-07-20T01:54:36;99563.97;;;23.02;65.08
75794;BME280;64418;47.536;19.074;2023-07-20T01:57:03;99574.78;;;23.13;64.72
75794;BME280;64418;47.536;19.074;2023-07-20T01:59:29;99579.00;;;23.10;64.73
75794;BME280;64418;47.536;19.074;2023-07-20T02:01:54;99583.81;;;23.04;64.85
75794;BME280;64418;47.536;19.074;2023-07-20T02:04:20;99579.81;;;23.11;64.80
75794;BME280;64418;47.536;19.074;2023-07-20T02:06:48;99581.78;;;23.10;64.61
75794;BME280;64418;47.536;19.074;2023-07-20T02:09:14;99587.09;;;23.07;64.80
75794;BME280;64418;47.536;19.074;2023-07-20T02:11:40;99601.53;;;23.03;64.86
75794;BME280;64418;47.536;19.074;2023-07-20T02:14:06;99591.69;;;23.11;64.60
75794;BME280;64418;47.536;19.074;2023-07-20T02:16:32;99603.97;;;23.05;64.80
75794;BME280;64418;47.536;19.074;2023-07-20T02:18:58;99593.22;;;23.17;64.38
75794;BME280;64418;47.536;19.074;2023-07-20T02:21:24;99596.28;;;23.16;64.40
75794;BME280;64418;47.536;19.074;2023-07-20T02:23:51;99605.09;;;23.18;64.39
75794;BME280;64418;47.536;19.074;2023-07-20T02:26:17;99588.63;;;23.13;64.23
75794;BME280;64418;47.536;19.074;2023-07-20T02:28:43;99601.28;;;23.27;64.13
75794;BME280;64418;47.536;19.074;2023-07-20T02:31:09;99601.69;;;23.34;63.78
75794;BME280;64418;47.536;19.074;2023-07-20T02:33:36;99606.28;;;23.39;63.63
75794;BME280;64418;47.536;19.074;2023-07-20T02:36:01;99605.78;;;23.37;63.82
75794;BME280;64418;47.536;19.074;2023-07-20T02:38:27;99608.03;;;23.35;63.99
75794;BME280;64418;47.536;19.074;2023-07-20T02:41:06;99607.00;;;23.31;64.07
75794;BME280;64418;47.536;19.074;2023-07-20T02:43:32;99606.53;;;23.29;64.36
75794;BME280;64418;47.536;19.074;2023-07-20T02:45:58;99598.25;;;23.01;65.50
75794;BME280;64418;47.536;19.074;2023-07-20T02:48:47;99618.19;;;22.98;66.21
75794;BME280;64418;47.536;19.074;2023-07-20T02:51:17;99618.91;;;22.90;66.70
75794;BME280;64418;47.536;19.074;2023-07-20T02:53:43;99613.19;;;22.87;67.00
75794;BME280;64418;47.536;19.074;2023-07-20T02:56:20;99615.66;;;22.88;66.98
75794;BME280;64418;47.536;19.074;2023-07-20T02:58:47;99619.13;;;22.80;68.97
75794;BME280;64418;47.536;19.074;2023-07-20T03:01:14;99617.06;;;22.72;69.23
75794;BME280;64418;47.536;19.074;2023-07-20T03:03:42;99588.13;;;22.51;69.38
75794;BME280;64418;47.536;19.074;2023-07-20T03:06:08;99618.22;;;22.66;69.18
75794;BME280;64418;47.536;19.074;2023-07-20T03:08:35;99622.75;;;22.62;67.74
75794;BME280;64418;47.536;19.074;2023-07-20T03:11:01;99623.75;;;22.66;66.78
75794;BME280;64418;47.536;19.074;2023-07-20T03:13:49;99629.06;;;22.63;66.49
75794;BME280;64418;47.536;19.074;2023-07-20T03:16:35;99630.50;;;22.60;66.38
75794;BME280;64418;47.536;19.074;2023-07-20T03:19:01;99640.00;;;22.54;66.11
75794;BME280;64418;47.536;19.074;2023-07-20T03:21:26;99629.03;;;22.49;66.07
75794;BME280;64418;47.536;19.074;2023-07-20T03:23:53;99635.78;;;22.43;66.15
75794;BME280;64418;47.536;19.074;2023-07-20T03:26:19;99641.09;;;22.39;66.44
75794;BME280;64418;47.536;19.074;2023-07-20T03:28:45;99634.97;;;22.42;66.48
75794;BME280;64418;47.536;19.074;2023-07-20T03:31:13;99637.50;;;22.39;66.17
75794;BME280;64418;47.536;19.074;2023-07-20T03:33:39;99657.41;;;22.36;66.09
75794;BME280;64418;47.536;19.074;2023-07-20T03:36:05;99653.03;;;22.35;66.09
75794;BME280;64418;47.536;19.074;2023-07-20T03:38:34;99645.25;;;22.37;65.43
75794;BME280;64418;47.536;19.074;2023-07-20T03:41:00;99654.56;;;22.41;64.63
75794;BME280;64418;47.536;19.074;2023-07-20T03:43:27;99662.78;;;22.46;64.21
75794;BME280;64418;47.536;19.074;2023-07-20T03:45:54;99655.41;;;22.41;64.26
75794;BME280;64418;47.536;19.074;2023-07-20T03:48:23;99664.97;;;22.30;64.70
75794;BME280;64418;47.536;19.074;2023-07-20T03:50:51;99666.91;;;22.30;64.91
75794;BME280;64418;47.536;19.074;2023-07-20T03:53:18;99671.47;;;22.21;65.35
75794;BME280;64418;47.536;19.074;2023-07-20T03:55:48;99665.44;;;22.19;65.47
75794;BME280;64418;47.536;19.074;2023-07-20T03:58:14;99667.75;;;22.12;65.56
75794;BME280;64418;47.536;19.074;2023-07-20T04:00:44;99675.44;;;22.15;65.36
75794;BME280;64418;47.536;19.074;2023-07-20T04:03:11;99644.22;;;22.00;65.24
75794;BME280;64418;47.536;19.074;2023-07-20T04:05:38;99664.41;;;22.15;65.45
75794;BME280;64418;47.536;19.074;2023-07-20T04:08:04;99662.69;;;22.19;65.47
75794;BME280;64418;47.536;19.074;2023-07-20T04:10:30;99661.12;;;22.13;65.64
75794;BME280;64418;47.536;19.074;2023-07-20T04:13:16;99673.72;;;22.19;65.63
75794;BME280;64418;47.536;19.074;2023-07-20T04:15:42;99669.25;;;22.23;65.48
75794;BME280;64418;47.536;19.074;2023-07-20T04:18:09;99658.81;;;22.20;65.32
75794;BME280;64418;47.536;19.074;2023-07-20T04:20:35;99660.16;;;22.03;65.92
75794;BME280;64418;47.536;19.074;2023-07-20T04:23:05;99660.09;;;22.08;65.65
75794;BME280;64418;47.536;19.074;2023-07-20T04:25:32;99655.50;;;22.18;65.40
75794;BME280;64418;47.536;19.074;2023-07-20T04:28:18;99648.16;;;22.13;65.40
75794;BME280;64418;47.536;19.074;2023-07-20T04:30:44;99654.84;;;22.26;64.85
75794;BME280;64418;47.536;19.074;2023-07-20T04:33:10;99653.56;;;22.18;64.50
75794;BME280;64418;47.536;19.074;2023-07-20T04:35:48;99654.31;;;22.24;64.45
75794;BME280;64418;47.536;19.074;2023-07-20T04:38:36;99651.09;;;22.35;63.78
75794;BME280;64418;47.536;19.074;2023-07-20T04:41:02;99658.03;;;22.33;63.61
75794;BME280;64418;47.536;19.074;2023-07-20T04:43:29;99659.28;;;22.40;63.33
75794;BME280;64418;47.536;19.074;2023-07-20T04:46:15;99653.75;;;22.40;63.39
75794;BME280;64418;47.536;19.074;2023-07-20T04:48:41;99660.31;;;22.44;63.48
75794;BME280;64418;47.536;19.074;2023-07-20T04:51:07;99657.75;;;22.48;63.33
75794;BME280;64418;47.536;19.074;2023-07-20T04:53:34;99655.06;;;22.62;62.68
75794;BME280;64418;47.536;19.074;2023-07-20T04:56:01;99655.88;;;22.62;62.33
75794;BME280;64418;47.536;19.074;2023-07-20T04:58:47;99651.03;;;22.73;61.29
75794;BME280;64418;47.536;19.074;2023-07-20T05:01:13;99654.00;;;22.76;60.50
75794;BME280;64418;47.536;19.074;2023-07-20T05:03:39;99659.22;;;22.91;60.03
75794;BME280;64418;47.536;19.074;2023-07-20T05:06:25;99670.69;;;22.98;59.64
75794;BME280;64418;47.536;19.074;2023-07-20T05:08:52;99661.19;;;23.04;59.12
75794;BME280;64418;47.536;19.074;2023-07-20T05:11:39;99666.41;;;23.06;58.73
75794;BME280;64418;47.536;19.074;2023-07-20T05:14:05;99666.72;;;23.18;58.44
75794;BME280;64418;47.536;19.074;2023-07-20T05:16:31;99666.00;;;23.13;58.67
75794;BME280;64418;47.536;19.074;2023-07-20T05:19:17;99671.53;;;23.26;58.33
75794;BME280;64418;47.536;19.074;2023-07-20T05:21:44;99672.87;;;23.29;57.68
75794;BME280;64418;47.536;19.074;2023-07-20T05:24:11;99665.69;;;23.28;56.70
75794;BME280;64418;47.536;19.074;2023-07-20T05:26:58;99661.53;;;23.44;56.20
75794;BME280;64418;47.536;19.074;2023-07-20T05:29:25;99665.41;;;23.57;55.81
75794;BME280;64418;47.536;19.074;2023-07-20T05:31:51;99664.59;;;23.56;55.64
75794;BME280;64418;47.536;19.074;2023-07-20T05:34:17;99671.66;;;23.48;55.34
75794;BME280;64418;47.536;19.074;2023-07-20T05:36:43;99665.19;;;23.53;55.35
75794;BME280;64418;47.536;19.074;2023-07-20T05:39:09;99664.97;;;23.49;54.96
75794;BME280;64418;47.536;19.074;2023-07-20T05:41:56;99666.97;;;23.49;54.68
75794;BME280;64418;47.536;19.074;2023-07-20T05:44:21;99659.25;;;23.46;54.74
75794;BME280;64418;47.536;19.074;2023-07-20T05:46:47;99673.91;;;23.60;54.22
75794;BME280;64418;47.536;19.074;2023-07-20T05:49:13;99672.16;;;23.64;54.10
75794;BME280;64418;47.536;19.074;2023-07-20T05:51:39;99682.16;;;23.74;54.19
75794;BME280;64418;47.536;19.074;2023-07-20T05:54:04;99686.78;;;23.78;54.21
75794;BME280;64418;47.536;19.074;2023-07-20T05:56:33;99689.53;;;23.78;54.06
75794;BME280;64418;47.536;19.074;2023-07-20T05:59:01;99689.94;;;23.85;54.08
75794;BME280;64418;47.536;19.074;2023-07-20T06:01:28;99694.22;;;23.91;53.73
75794;BME280;64418;47.536;19.074;2023-07-20T06:03:55;99677.88;;;24.04;53.58
75794;BME280;64418;47.536;19.074;2023-07-20T06:06:21;99681.69;;;24.08;53.26
75794;BME280;64418;47.536;19.074;2023-07-20T06:09:06;99680.66;;;24.04;53.16
75794;BME280;64418;47.536;19.074;2023-07-20T06:11:32;99685.97;;;24.14;52.67
75794;BME280;64418;47.536;19.074;2023-07-20T06:13:59;99688.16;;;24.17;52.45
75794;BME280;64418;47.536;19.074;2023-07-20T06:16:47;99679.41;;;24.23;52.38
75794;BME280;64418;47.536;19.074;2023-07-20T06:19:12;99694.16;;;24.19;52.19
75794;BME280;64418;47.536;19.074;2023-07-20T06:21:38;99699.72;;;24.19;52.60
75794;BME280;64418;47.536;19.074;2023-07-20T06:24:24;99699.09;;;24.08;52.87
75794;BME280;64418;47.536;19.074;2023-07-20T06:26:50;99711.50;;;24.11;52.94
75794;BME280;64418;47.536;19.074;2023-07-20T06:29:16;99704.53;;;24.13;53.16
75794;BME280;64418;47.536;19.074;2023-07-20T06:31:43;99714.25;;;24.11;53.39
75794;BME280;64418;47.536;19.074;2023-07-20T06:34:10;99714.13;;;24.52;52.50
75794;BME280;64418;47.536;19.074;2023-07-20T06:36:56;99704.78;;;24.39;52.31
75794;BME280;64418;47.536;19.074;2023-07-20T06:39:21;99705.53;;;24.53;52.21
75794;BME280;64418;47.536;19.074;2023-07-20T06:42:07;99714.78;;;24.49;52.33
75794;BME280;64418;47.536;19.074;2023-07-20T06:44:33;99720.38;;;24.57;52.17
75794;BME280;64418;47.536;19.074;2023-07-20T06:46:59;99726.00;;;24.66;51.97
75794;BME280;64418;47.536;19.074;2023-07-20T06:49:26;99717.53;;;24.71;51.48
75794;BME280;64418;47.536;19.074;2023-07-20T06:51:53;99728.44;;;24.67;50.93
75794;BME280;64418;47.536;19.074;2023-07-20T06:54:19;99728.06;;;24.60;51.31
75794;BME280;64418;47.536;19.074;2023-07-20T06:56:45;99738.62;;;24.80;51.30
75794;BME280;64418;47.536;19.074;2023-07-20T06:59:11;99740.25;;;24.81;50.71
75794;BME280;64418;47.536;19.074;2023-07-20T07:01:36;99737.75;;;24.93;50.43
75794;BME280;64418;47.536;19.074;2023-07-20T07:04:02;99731.16;;;25.12;49.74
75794;BME280;64418;47.536;19.074;2023-07-20T07:06:30;99746.03;;;25.16;49.76
75794;BME280;64418;47.536;19.074;2023-07-20T07:08:56;99744.84;;;25.39;49.33
75794;BME280;64418;47.536;19.074;2023-07-20T07:11:22;99749.13;;;25.45;48.27
75794;BME280;64418;47.536;19.074;2023-07-20T07:14:08;99743.84;;;25.66;47.52
75794;BME280;64418;47.536;19.074;2023-07-20T07:16:54;99756.28;;;25.77;47.31
75794;BME280;64418;47.536;19.074;2023-07-20T07:19:20;99760.97;;;25.59;46.96
75794;BME280;64418;47.536;19.074;2023-07-20T07:21:48;99760.72;;;25.47;46.85
75794;BME280;64418;47.536;19.074;2023-07-20T07:24:14;99757.06;;;25.69;46.69
75794;BME280;64418;47.536;19.074;2023-07-20T07:26:40;99755.41;;;26.16;45.72
75794;BME280;64418;47.536;19.074;2023-07-20T07:29:25;99764.41;;;26.21;46.06
75794;BME280;64418;47.536;19.074;2023-07-20T07:31:51;99757.03;;;26.17;45.34
75794;BME280;64418;47.536;19.074;2023-07-20T07:34:38;99769.59;;;26.06;45.72
75794;BME280;64418;47.536;19.074;2023-07-20T07:37:25;99769.03;;;26.43;45.17
75794;BME280;64418;47.536;19.074;2023-07-20T07:39:51;99765.25;;;26.30;44.08
75794;BME280;64418;47.536;19.074;2023-07-20T07:42:37;99760.50;;;26.48;43.67
75794;BME280;64418;47.536;19.074;2023-07-20T07:45:03;99779.16;;;26.39;43.23
75794;BME280;64418;47.536;19.074;2023-07-20T07:47:29;99761.00;;;26.59;41.83
75794;BME280;64418;47.536;19.074;2023-07-20T07:50:16;99767.53;;;26.71;41.15
75794;BME280;64418;47.536;19.074;2023-07-20T07:52:44;99754.59;;;26.67;41.10
75794;BME280;64418;47.536;19.074;2023-07-20T07:55:10;99773.28;;;26.92;40.76
75794;BME280;64418;47.536;19.074;2023-07-20T07:57:36;99762.38;;;27.25;40.36
75794;BME280;64418;47.536;19.074;2023-07-20T08:00:03;99761.72;;;27.28;40.62
75794;BME280;64418;47.536;19.074;2023-07-20T08:02:29;99767.00;;;27.67;40.04
75794;BME280;64418;47.536;19.074;2023-07-20T08:05:15;99773.44;;;27.89;39.65
75794;BME280;64418;47.536;19.074;2023-07-20T08:07:41;99757.78;;;28.05;39.24
75794;BME280;64418;47.536;19.074;2023-07-20T08:10:28;99769.22;;;27.83;38.68
75794;BME280;64418;47.536;19.074;2023-07-20T08:12:54;99780.16;;;27.88;38.44
75794;BME280;64418;47.536;19.074;2023-07-20T08:15:20;99775.38;;;28.67;37.37
75794;BME280;64418;47.536;19.074;2023-07-20T08:18:06;99776.47;;;28.54;37.13
75794;BME280;64418;47.536;19.074;2023-07-20T08:20:32;99773.47;;;28.59;36.38
75794;BME280;64418;47.536;19.074;2023-07-20T08:23:19;99778.56;;;28.16;37.13
75794;BME280;64418;47.536;19.074;2023-07-20T08:26:06;99781.59;;;28.73;36.61
75794;BME280;64418;47.536;19.074;2023-07-20T08:28:33;99769.94;;;28.92;36.39
75794;BME280;64418;47.536;19.074;2023-07-20T08:30:59;99784.69;;;28.92;36.40
75794;BME280;64418;47.536;19.074;2023-07-20T08:33:25;99774.00;;;28.94;36.28
75794;BME280;64418;47.536;19.074;2023-07-20T08:35:51;99772.56;;;28.67;36.41
75794;BME280;64418;47.536;19.074;2023-07-20T08:38:17;99781.78;;;28.89;36.03
75794;BME280;64418;47.536;19.074;2023-07-20T08:40:44;99767.47;;;28.90;35.71
75794;BME280;64418;47.536;19.074;2023-07-20T08:43:13;99783.38;;;28.48;36.80
75794;BME280;64418;47.536;19.074;2023-07-20T08:45:40;99788.84;;;28.45;36.74
75794;BME280;64418;47.536;19.074;2023-07-20T08:48:07;99790.16;;;29.01;36.04
75794;BME280;64418;47.536;19.074;2023-07-20T08:50:34;99794.53;;;28.48;36.67
75794;BME280;64418;47.536;19.074;2023-07-20T08:53:01;99794.41;;;28.24;36.83
75794;BME280;64418;47.536;19.074;2023-07-20T08:55:27;99805.56;;;27.48;37.86
75794;BME280;64418;47.536;19.074;2023-07-20T08:57:54;99794.94;;;27.33;37.62
75794;BME280;64418;47.536;19.074;2023-07-20T09:00:22;99810.34;;;27.13;37.40
75794;BME280;64418;47.536;19.074;2023-07-20T09:03:10;99809.09;;;26.85;37.56
75794;BME280;64418;47.536;19.074;2023-07-20T09:05:57;99808.09;;;26.81;37.55
75794;BME280;64418;47.536;19.074;2023-07-20T09:08:23;99798.59;;;26.65;37.59
75794;BME280;64418;47.536;19.074;2023-07-20T09:10:49;99797.94;;;26.76;37.90
75794;BME280;64418;47.536;19.074;2023-07-20T09:13:15;99813.81;;;27.02;37.80
75794;BME280;64418;47.536;19.074;2023-07-20T09:15:47;99813.97;;;26.97;38.08
75794;BME280;64418;47.536;19.074;2023-07-20T09:18:23;99822.19;;;26.85;38.54
75794;BME280;64418;47.536;19.074;2023-07-20T09:20:50;99810.53;;;26.82;38.85
75794;BME280;64418;47.536;19.074;2023-07-20T09:23:15;99811.69;;;26.64;38.94
75794;BME280;64418;47.536;19.074;2023-07-20T09:25:41;99810.19;;;26.75;39.18
75794;BME280;64418;47.536;19.074;2023-07-20T09:28:07;99809.87;;;27.03;38.77
75794;BME280;64418;47.536;19.074;2023-07-20T09:30:33;99817.00;;;27.38;38.50
75794;BME280;64418;47.536;19.074;2023-07-20T09:33:01;99812.41;;;27.51;38.16
75794;BME280;64418;47.536;19.074;2023-07-20T09:35:47;99810.00;;;27.87;37.94
75794;BME280;64418;47.536;19.074;2023-07-20T09:38:14;99807.12;;;27.66;38.07
75794;BME280;64418;47.536;19.074;2023-07-20T09:40:40;99817.72;;;27.82;38.12
75794;BME280;64418;47.536;19.074;2023-07-20T09:43:07;99802.44;;;27.50;38.39
75794;BME280;64418;47.536;19.074;2023-07-20T09:45:34;99808.78;;;27.67;37.66
75794;BME280;64418;47.536;19.074;2023-07-20T09:48:05;99804.81;;;27.68;37.88
75794;BME280;64418;47.536;19.074;2023-07-20T09:50:42;99809.16;;;28.45;36.63
75794;BME280;64418;47.536;19.074;2023-07-20T09:53:17;99815.69;;;28.49;36.15
75794;BME280;64418;47.536;19.074;2023-07-20T09:55:44;99794.84;;;29.09;35.19
75794;BME280;64418;47.536;19.074;2023-07-20T09:58:10;99805.81;;;28.81;35.49
75794;BME280;64418;47.536;19.074;2023-07-20T10:00:37;99797.53;;;29.50;34.27
75794;BME280;64418;47.536;19.074;2023-07-20T10:03:27;99805.31;;;29.90;33.68
75794;BME280;64418;47.536;19.074;2023-07-20T10:05:56;99810.34;;;30.73;31.94
75794;BME280;64418;47.536;19.074;2023-07-20T10:08:24;99812.03;;;30.49;32.22
75794;BME280;64418;47.536;19.074;2023-07-20T10:10:51;99815.31;;;30.27;33.01
75794;BME280;64418;47.536;19.074;2023-07-20T10:13:38;99808.16;;;30.42;33.01
75794;BME280;64418;47.536;19.074;2023-07-20T10:16:10;99818.28;;;29.74;34.33
75794;BME280;64418;47.536;19.074;2023-07-20T10:19:03;99810.87;;;30.26;33.83
75794;BME280;64418;47.536;19.074;2023-07-20T10:21:33;99815.72;;;30.66;32.80
75794;BME280;64418;47.536;19.074;2023-07-20T10:24:01;99802.03;;;30.36;33.45
75794;BME280;64418;47.536;19.074;2023-07-20T10:26:48;99811.34;;;30.04;34.05
75794;BME280;64418;47.536;19.074;2023-07-20T10:29:14;99797.91;;;30.58;32.39
75794;BME280;64418;47.536;19.074;2023-07-20T10:31:41;99804.22;;;30.83;31.71
75794;BME280;64418;47.536;19.074;2023-07-20T10:34:10;99786.84;;;31.17;30.89
75794;BME280;64418;47.536;19.074;2023-07-20T10:36:56;99798.66;;;30.71;31.75
75794;BME280;64418;47.536;19.074;2023-07-20T10:39:23;99792.00;;;29.75;32.44
75794;BME280;64418;47.536;19.074;2023-07-20T10:41:49;99792.31;;;29.16;33.49
75794;BME280;64418;47.536;19.074;2023-07-20T10:44:37;99786.22;;;29.92;32.50
75794;BME280;64418;47.536;19.074;2023-07-20T10:47:08;99791.69;;;29.88;32.98
75794;BME280;64418;47.536;19.074;2023-07-20T10:49:59;99792.31;;;29.61;32.51
75794;BME280;64418;47.536;19.074;2023-07-20T10:52:26;99790.66;;;29.36;32.29
75794;BME280;64418;47.536;19.074;2023-07-20T10:54:52;99801.06;;;29.14;32.12
75794;BME280;64418;47.536;19.074;2023-07-20T10:57:27;99798.53;;;29.01;32.37
75794;BME280;64418;47.536;19.074;2023-07-20T11:00:08;99797.44;;;28.81;33.04
75794;BME280;64418;47.536;19.074;2023-07-20T11:02:58;99794.59;;;28.69;33.67
75794;BME280;64418;47.536;19.074;2023-07-20T11:05:46;99802.28;;;29.05;33.46
75794;BME280;64418;47.536;19.074;2023-07-20T11:08:12;99799.97;;;29.07;33.42
75794;BME280;64418;47.536;19.074;2023-07-20T11:10:38;99803.50;;;28.33;33.84
75794;BME280;64418;47.536;19.074;2023-07-20T11:13:24;99801.91;;;28.32;34.03
75794;BME280;64418;47.536;19.074;2023-07-20T11:16:03;99801.25;;;28.77;33.63
75794;BME280;64418;47.536;19.074;2023-07-20T11:18:29;99786.75;;;28.62;33.74
75794;BME280;64418;47.536;19.074;2023-07-20T11:20:56;99795.94;;;29.49;32.64
75794;BME280;64418;47.536;19.074;2023-07-20T11:23:23;99796.16;;;29.69;32.81
75794;BME280;64418;47.536;19.074;2023-07-20T11:25:49;99790.78;;;30.61;31.35
75794;BME280;64418;47.536;19.074;2023-07-20T11:28:35;99787.63;;;29.98;31.98
75794;BME280;64418;47.536;19.074;2023-07-20T11:31:02;99787.63;;;30.10;31.75
75794;BME280;64418;47.536;19.074;2023-07-20T11:33:28;99793.44;;;31.52;29.90
75794;BME280;64418;47.536;19.074;2023-07-20T11:36:15;99788.97;;;30.80;30.55
75794;BME280;64418;47.536;19.074;2023-07-20T11:38:42;99788.88;;;31.32;29.41
75794;BME280;64418;47.536;19.074;2023-07-20T11:41:28;99785.94;;;30.85;30.04
75794;BME280;64418;47.536;19.074;2023-07-20T11:44:15;99792.00;;;31.15;28.98
75794;BME280;64418;47.536;19.074;2023-07-20T11:46:42;99807.31;;;31.33;29.04
75794;BME280;64418;47.536;19.074;2023-07-20T11:49:09;99790.97;;;31.51;28.93
75794;BME280;64418;47.536;19.074;2023-07-20T11:51:56;99795.00;;;31.22;29.46
75794;BME280;64418;47.536;19.074;2023-07-20T11:54:23;99801.84;;;31.68;28.42
75794;BME280;64418;47.536;19.074;2023-07-20T11:56:53;99792.59;;;31.52;28.78
75794;BME280;64418;47.536;19.074;2023-07-20T11:59:19;99799.12;;;31.56;28.65
75794;BME280;64418;47.536;19.074;2023-07-20T12:01:45;99795.37;;;31.36;28.98
75794;BME280;64418;47.536;19.074;2023-07-20T12:04:12;99785.22;;;31.60;28.42
75794;BME280;64418;47.536;19.074;2023-07-20T12:07:00;99773.84;;;31.68;28.81
75794;BME280;64418;47.536;19.074;2023-07-20T12:10:04;99781.84;;;32.52;27.66
75794;BME280;64418;47.536;19.074;2023-07-20T12:12:31;99775.31;;;32.28;27.90
75794;BME280;64418;47.536;19.074;2023-07-20T12:15:20;99787.53;;;32.20;27.99
75794;BME280;64418;47.536;19.074;2023-07-20T12:17:49;99786.56;;;31.97;27.98
75794;BME280;64418;47.536;19.074;2023-07-20T12:20:25;99783.38;;;32.14;27.88
75794;BME280;64418;47.536;19.074;2023-07-20T12:22:52;99778.34;;;32.74;27.14
75794;BME280;64418;47.536;19.074;2023-07-20T12:25:39;99769.47;;;32.18;27.69
75794;BME280;64418;47.536;19.074;2023-07-20T12:28:25;99758.94;;;31.80;28.11
75794;BME280;64418;47.536;19.074;2023-07-20T12:30:51;99766.88;;;31.78;28.40
75794;BME280;64418;47.536;19.074;2023-07-20T12:33:18;99768.28;;;31.40;27.96
75794;BME280;64418;47.536;19.074;2023-07-20T12:36:05;99770.22;;;31.68;26.95
75794;BME280;64418;47.536;19.074;2023-07-20T12:38:32;99778.84;;;32.44;25.60
75794;BME280;64418;47.536;19.074;2023-07-20T12:41:18;99775.97;;;32.06;25.09
75794;BME280;64418;47.536;19.074;2023-07-20T12:43:45;99774.78;;;31.91;25.90
75794;BME280;64418;47.536;19.074;2023-07-20T12:46:12;99758.94;;;31.80;26.11
75794;BME280;64418;47.536;19.074;2023-07-20T12:48:39;99769.22;;;31.76;25.03
75794;BME280;64418;47.536;19.074;2023-07-20T12:51:25;99773.19;;;31.75;24.61
75794;BME280;64418;47.536;19.074;2023-07-20T12:53:52;99758.97;;;31.36;25.18
75794;BME280;64418;47.536;19.074;2023-07-20T12:56:38;99763.25;;;31.62;25.70
75794;BME280;64418;47.536;19.074;2023-07-20T12:59:04;99760.66;;;31.53;26.08
75794;BME280;64418;47.536;19.074;2023-07-20T13:01:30;99762.59;;;31.84;26.07
75794;BME280;64418;47.536;19.074;2023-07-20T13:03:56;99757.81;;;31.84;26.30
75794;BME280;64418;47.536;19.074;2023-07-20T13:06:22;99763.94;;;32.21;25.86
75794;BME280;64418;47.536;19.074;2023-07-20T13:08:48;99756.47;;;32.10;25.89
75794;BME280;64418;47.536;19.074;2023-07-20T13:11:15;99762.59;;;31.84;26.10
75794;BME280;64418;47.536;19.074;2023-07-20T13:13:41;99764.69;;;31.87;25.69